CYYZ/YYZ METAR and TAF weather

Enter ICAO airport designator
Station Type Date Time Source
CYYZ METAR 2020/01/23 18:00 UTC NOAA

CYYZ 231800Z 15008KT 090V160 12SM FEW120 OVC140 02/M05 A3024 RMK AC1AS7 SLP250


Station Type Date Time Source
CYYZ Decoded METAR 2020/01/23 18:00 UTC NOAA

Toronto Pearson Int'L. Ont., Canada (CYYZ) 43-40N 079-38W 173M
Jan 23, 2020 - 01:00 PM EST / 2020.01.23 1800 UTC
Wind: from the SSE (150 degrees) at 9 MPH (8 KT) (direction variable):0
Visibility: 12 mile(s):0
Sky conditions: overcast
Temperature: 35 F (2 C)
Windchill: 28 F (-2 C):1
Dew Point: 23 F (-5 C)
Relative Humidity: 59%
Pressure (altimeter): 30.24 in. Hg (1024 hPa)
ob: CYYZ 231800Z 15008KT 090V160 12SM FEW120 OVC140 02/M05 A3024 RMK AC1AS7 SLP250
cycle: 18

Station Type Date Time Source
CYYZ TAF 2020/01/23 18:39 UTC NOAA

TAF CYYZ 231738Z 2318/2424 15006KT P6SM FEW120 OVC140
BECMG 2320/2322 08006KT
FM232300 05006KT P6SM OVC100
FM241000 06010KT P6SM SCT060 OVC080
FM241300 06012KT P6SM BKN040 OVC080
FM242200 07010G20KT P6SM OVC030
TEMPO 2422/2424 P6SM -RA PROB30 2422/2424 P6SM -FZRA
RMK NXT FCST BY 232100Z

Example: see airport list